createdAt,value
2018-10-06T03:03:52.710Z,986.44
2018-10-06T03:04:47.621Z,986.41
2018-10-06T03:05:48.044Z,986.39
2018-10-06T03:06:48.261Z,986.41
2018-10-06T03:07:49.079Z,986.39
2018-10-06T03:08:51.334Z,986.40
2018-10-06T03:09:50.560Z,986.38
2018-10-06T03:10:48.922Z,986.42
2018-10-06T03:11:51.471Z,986.39
2018-10-06T03:12:53.516Z,986.36
2018-10-06T03:13:49.003Z,986.36
2018-10-06T03:14:48.702Z,986.36
2018-10-06T03:15:49.106Z,986.36
2018-10-06T03:16:47.953Z,986.33
2018-10-06T03:17:48.220Z,986.34
2018-10-06T03:18:48.076Z,986.31
2018-10-06T03:19:47.906Z,986.32
2018-10-06T03:20:47.892Z,986.32
2018-10-06T03:21:49.392Z,986.32
2018-10-06T03:22:48.681Z,986.24
2018-10-06T03:23:49.583Z,986.27
2018-10-06T03:24:48.668Z,986.22
2018-10-06T03:25:49.178Z,986.26
2018-10-06T03:26:49.425Z,986.20
2018-10-06T03:27:49.785Z,986.20
2018-10-06T03:28:49.052Z,986.17
2018-10-06T03:30:49.825Z,986.14
2018-10-06T03:31:50.635Z,986.12
2018-10-06T03:32:50.948Z,986.12
2018-10-06T03:33:51.482Z,986.12
2018-10-06T03:34:50.383Z,986.12
2018-10-06T03:35:50.556Z,986.09
2018-10-06T03:36:51.033Z,986.08
2018-10-06T03:37:51.057Z,986.10
2018-10-06T03:38:51.652Z,986.09
2018-10-06T03:39:52.046Z,986.12
2018-10-06T03:40:51.256Z,986.09
2018-10-06T03:41:51.884Z,986.10
2018-10-06T03:42:51.984Z,986.08
2018-10-06T03:43:52.216Z,986.05
2018-10-06T03:44:53.026Z,986.03
2018-10-06T03:45:53.531Z,986.01
2018-10-06T03:46:52.323Z,985.99
2018-10-06T03:47:52.851Z,986.03
2018-10-06T03:48:52.607Z,986.04
2018-10-06T03:49:53.183Z,986.03
2018-10-06T03:50:53.495Z,986.06
2018-10-06T03:51:53.719Z,986.02
2018-10-06T03:52:53.455Z,986.05
2018-10-06T03:54:54.823Z,986.07
2018-10-06T03:55:54.431Z,986.09
2018-10-06T03:56:55.086Z,986.09
2018-10-06T03:57:54.533Z,986.08
2018-10-06T03:59:56.231Z,986.07
2018-10-06T04:01:03.465Z,986.06
2018-10-06T04:01:56.201Z,986.04
2018-10-06T04:02:56.237Z,986.07
2018-10-06T04:03:55.549Z,986.04
2018-10-06T04:04:55.681Z,986.03
2018-10-06T04:05:57.999Z,986.01
2018-10-06T04:06:57.040Z,986.02
2018-10-06T04:07:56.694Z,986.01
2018-10-06T04:08:58.262Z,986.01
2018-10-06T04:09:57.701Z,986.00
2018-10-06T04:10:57.191Z,986.02
2018-10-06T04:11:57.085Z,986.00
2018-10-06T04:12:59.254Z,986.01
2018-10-06T04:13:58.145Z,985.98
2018-10-06T04:14:58.652Z,986.06
2018-10-06T04:15:59.140Z,986.05
2018-10-06T04:16:59.015Z,986.00
2018-10-06T04:19:46.321Z,986.02
2018-10-06T04:20:47.125Z,985.97
2018-10-06T04:21:49.666Z,986.02
2018-10-06T04:22:45.943Z,986.00
2018-10-06T04:23:49.654Z,985.98
2018-10-06T04:24:54.915Z,985.98
2018-10-06T04:25:50.639Z,985.98
2018-10-06T04:26:57.249Z,985.92
2018-10-06T04:27:49.117Z,985.90
2018-10-06T04:28:56.831Z,985.93
2018-10-06T04:29:49.714Z,985.92
2018-10-06T04:31:03.189Z,985.91
2018-10-06T04:31:51.186Z,985.92
2018-10-06T04:32:48.339Z,985.92
2018-10-06T04:33:47.315Z,985.92
2018-10-06T04:34:46.678Z,985.86
2018-10-06T04:35:46.232Z,985.85
2018-10-06T04:36:48.265Z,985.84
2018-10-06T04:37:47.154Z,985.79
2018-10-06T04:38:46.499Z,985.84
2018-10-06T04:39:49.481Z,985.84
2018-10-06T04:40:46.461Z,985.84
2018-10-06T04:41:47.031Z,985.79
2018-10-06T04:42:49.009Z,985.84
2018-10-06T04:43:47.538Z,985.82
2018-10-06T04:44:50.300Z,985.85
2018-10-06T04:45:47.664Z,985.81
2018-10-06T04:46:50.427Z,985.82
2018-10-06T04:47:48.329Z,985.81
2018-10-06T04:48:50.704Z,985.76
2018-10-06T04:49:49.324Z,985.78
2018-10-06T04:50:51.044Z,985.75
2018-10-06T04:51:50.217Z,985.76
2018-10-06T04:52:49.557Z,985.74
2018-10-06T04:53:51.215Z,985.74
2018-10-06T04:54:50.624Z,985.74
2018-10-06T04:55:54.880Z,985.69
2018-10-06T04:56:56.989Z,985.71
2018-10-06T04:57:49.957Z,985.73
2018-10-06T04:58:51.926Z,985.68
2018-10-06T04:59:51.170Z,985.71
2018-10-06T05:00:51.553Z,985.69
2018-10-06T05:01:51.884Z,985.71
2018-10-06T05:02:51.276Z,985.69
2018-10-06T05:03:51.626Z,985.65
2018-10-06T05:04:53.285Z,985.70
2018-10-06T05:05:52.039Z,985.67
2018-10-06T05:07:02.367Z,985.68
2018-10-06T05:07:52.345Z,985.74
2018-10-06T05:08:52.363Z,985.73
2018-10-06T05:09:55.324Z,985.72
2018-10-06T05:10:52.901Z,985.73
2018-10-06T05:11:53.084Z,985.64
2018-10-06T05:12:53.090Z,985.66
2018-10-06T05:13:54.319Z,985.67
2018-10-06T05:14:53.706Z,985.69
2018-10-06T05:15:53.576Z,985.68
2018-10-06T05:16:55.589Z,985.68
2018-10-06T05:17:55.987Z,985.70
2018-10-06T05:18:54.278Z,985.67
2018-10-06T05:19:54.360Z,985.70
2018-10-06T05:20:54.419Z,985.68
2018-10-06T05:21:54.623Z,985.73
2018-10-06T05:22:55.047Z,985.71
2018-10-06T05:23:54.318Z,985.72
2018-10-06T05:24:54.406Z,985.75
2018-10-06T05:25:54.843Z,985.73
2018-10-06T05:26:56.074Z,985.72
2018-10-06T05:27:55.043Z,985.73
2018-10-06T05:28:55.053Z,985.74
2018-10-06T05:29:54.890Z,985.70
2018-10-06T05:30:55.554Z,985.71
2018-10-06T05:31:55.870Z,985.66
2018-10-06T05:32:55.315Z,985.69
2018-10-06T05:34:00.251Z,985.67
2018-10-06T05:35:56.167Z,985.66
2018-10-06T05:36:57.411Z,985.60
2018-10-06T05:37:57.311Z,985.65
2018-10-06T05:38:57.175Z,985.62
2018-10-06T05:39:58.689Z,985.62
2018-10-06T05:40:56.766Z,985.64
2018-10-06T05:41:58.803Z,985.66
2018-10-06T05:42:57.623Z,985.65
2018-10-06T05:43:58.005Z,985.68
2018-10-06T05:44:57.648Z,985.66
2018-10-06T05:45:59.078Z,985.62
2018-10-06T05:46:58.124Z,985.63
2018-10-06T05:47:57.742Z,985.60
2018-10-06T05:48:58.089Z,985.63
2018-10-06T05:49:58.520Z,985.62
2018-10-06T05:50:58.353Z,985.61
2018-10-06T05:51:59.264Z,985.57
2018-10-06T05:52:58.755Z,985.56
2018-10-06T05:53:58.940Z,985.55
2018-10-06T05:54:59.267Z,985.62
2018-10-06T05:55:59.245Z,985.62
2018-10-06T05:57:00.685Z,985.62
2018-10-06T05:58:00.875Z,985.66
2018-10-06T05:59:00.124Z,985.69
2018-10-06T05:59:59.830Z,985.73
2018-10-06T06:01:00.070Z,985.72
2018-10-06T06:01:59.897Z,985.71
2018-10-06T06:03:02.583Z,985.75
2018-10-06T06:04:01.236Z,985.72
2018-10-06T06:05:01.183Z,985.74
2018-10-06T06:06:00.733Z,985.73
2018-10-06T06:07:00.946Z,985.76
2018-10-06T06:08:01.258Z,985.73
2018-10-06T06:09:01.686Z,985.75
2018-10-06T06:10:01.849Z,985.72
2018-10-06T06:11:01.984Z,985.80
2018-10-06T06:12:01.729Z,985.79
2018-10-06T06:13:02.188Z,985.78
2018-10-06T06:14:01.963Z,985.79
2018-10-06T06:15:02.374Z,985.79
2018-10-06T06:16:02.511Z,985.82
2018-10-06T06:17:02.696Z,985.83
2018-10-06T06:18:03.103Z,985.81
2018-10-06T06:19:02.925Z,985.84
2018-10-06T06:20:03.255Z,985.86
2018-10-06T06:21:03.220Z,985.85
2018-10-06T06:22:03.723Z,985.83
2018-10-06T06:23:04.096Z,985.85
2018-10-06T06:24:05.388Z,985.84
2018-10-06T06:25:04.065Z,985.86
2018-10-06T06:26:04.466Z,985.87
2018-10-06T06:27:04.812Z,985.86
2018-10-06T06:28:04.583Z,985.83
2018-10-06T06:29:05.576Z,985.83
2018-10-06T06:30:05.126Z,985.83
2018-10-06T06:31:05.414Z,985.86
2018-10-06T06:32:06.281Z,985.86
2018-10-06T06:33:05.645Z,985.88
2018-10-06T06:34:06.043Z,985.90
2018-10-06T06:35:05.974Z,985.88
2018-10-06T06:36:06.106Z,985.88
2018-10-06T06:37:06.153Z,985.88
2018-10-06T06:38:06.688Z,985.87
2018-10-06T06:39:07.190Z,985.88
2018-10-06T06:40:07.899Z,985.92
2018-10-06T06:41:07.016Z,985.84
2018-10-06T06:43:08.585Z,985.86
2018-10-06T06:44:08.260Z,985.83
2018-10-06T06:45:07.858Z,985.87
2018-10-06T06:46:08.125Z,985.80
2018-10-06T06:47:08.510Z,985.81
2018-10-06T06:48:08.124Z,985.78
2018-10-06T06:49:09.889Z,985.83
2018-10-06T06:50:08.240Z,985.79
2018-10-06T06:51:08.952Z,985.83
2018-10-06T06:52:08.851Z,985.80
2018-10-06T06:53:09.413Z,985.83
2018-10-06T06:54:10.127Z,985.78
2018-10-06T06:55:09.194Z,985.79
2018-10-06T06:56:09.391Z,985.80
2018-10-06T06:57:10.217Z,985.77
2018-10-06T06:58:10.141Z,985.78
2018-10-06T06:59:10.363Z,985.76
2018-10-06T07:00:10.427Z,985.76
2018-10-06T07:01:10.392Z,985.75
2018-10-06T07:02:10.727Z,985.77
2018-10-06T07:03:11.048Z,985.79
2018-10-06T07:04:11.743Z,985.75
2018-10-06T07:05:12.071Z,985.75
2018-10-06T07:06:11.782Z,985.74
2018-10-06T07:07:11.943Z,985.77
2018-10-06T07:08:11.501Z,985.78
2018-10-06T07:09:14.292Z,985.72
2018-10-06T07:10:11.875Z,985.73
2018-10-06T07:12:15.852Z,985.72
2018-10-06T07:13:20.616Z,985.73
2018-10-06T07:16:31.384Z,985.75
2018-10-06T07:17:40.329Z,985.70
2018-10-06T07:19:35.064Z,985.65
2018-10-06T07:20:35.477Z,985.70
2018-10-06T07:22:28.947Z,985.69
2018-10-06T07:24:45.221Z,985.65
2018-10-06T07:26:32.104Z,985.70
2018-10-06T07:27:42.433Z,985.67
2018-10-06T07:28:35.859Z,985.72
2018-10-06T07:29:27.722Z,985.66
2018-10-06T07:30:30.819Z,985.74
2018-10-06T07:31:28.326Z,985.69
2018-10-06T07:37:58.627Z,985.63
2018-10-06T07:38:31.108Z,985.62
2018-10-06T07:40:27.455Z,985.65
2018-10-06T07:41:27.812Z,985.68
2018-10-06T07:42:27.324Z,985.70
2018-10-06T07:43:26.943Z,985.68
2018-10-06T07:44:27.964Z,985.70
2018-10-06T07:45:30.524Z,985.68
2018-10-06T07:46:28.956Z,985.67
2018-10-06T07:47:28.472Z,985.67
2018-10-06T07:48:27.494Z,985.66
2018-10-06T07:49:27.933Z,985.69
2018-10-06T07:50:28.639Z,985.64
2018-10-06T07:51:28.070Z,985.68
2018-10-06T07:52:29.657Z,985.68
2018-10-06T07:53:28.720Z,985.69
2018-10-06T07:54:28.761Z,985.72
2018-10-06T07:55:28.782Z,985.73
2018-10-06T07:56:28.936Z,985.69
2018-10-06T07:57:29.527Z,985.71
2018-10-06T07:58:29.472Z,985.73
2018-10-06T07:59:30.207Z,985.67
2018-10-06T08:00:30.011Z,985.68
2018-10-06T08:01:29.814Z,985.67
2018-10-06T08:02:29.793Z,985.72
2018-10-06T08:03:30.431Z,985.67
2018-10-06T08:04:30.416Z,985.66
2018-10-06T08:05:30.965Z,985.66
2018-10-06T08:06:30.494Z,985.61
2018-10-06T08:07:33.050Z,985.59
2018-10-06T08:08:31.482Z,985.63
2018-10-06T08:09:31.005Z,985.60
2018-10-06T08:10:31.085Z,985.62
2018-10-06T08:11:31.315Z,985.59
2018-10-06T08:12:31.436Z,985.63
2018-10-06T08:13:31.922Z,985.58
2018-10-06T08:14:32.272Z,985.57
2018-10-06T08:15:32.151Z,985.54
2018-10-06T08:16:31.998Z,985.57
2018-10-06T08:17:32.371Z,985.56
2018-10-06T08:18:33.003Z,985.58
2018-10-06T08:19:32.923Z,985.58
2018-10-06T08:20:33.050Z,985.55
2018-10-06T08:21:33.518Z,985.51
2018-10-06T08:22:33.551Z,985.53
2018-10-06T08:23:34.470Z,985.56
2018-10-06T08:24:33.927Z,985.52
2018-10-06T08:25:33.842Z,985.49
2018-10-06T08:26:35.097Z,985.51
2018-10-06T08:27:34.433Z,985.51
2018-10-06T08:28:35.007Z,985.52
2018-10-06T08:29:34.884Z,985.53
2018-10-06T08:30:35.720Z,985.49
2018-10-06T08:31:37.215Z,985.49
2018-10-06T08:32:35.040Z,985.50
2018-10-06T08:33:36.140Z,985.52
2018-10-06T08:35:38.197Z,985.51
2018-10-06T08:36:36.347Z,985.51
2018-10-06T08:37:36.127Z,985.55
2018-10-06T08:38:37.191Z,985.57
2018-10-06T08:39:36.493Z,985.53
2018-10-06T08:40:37.602Z,985.56
2018-10-06T08:41:36.942Z,985.53
2018-10-06T08:42:36.708Z,985.55
2018-10-06T08:43:37.107Z,985.53
2018-10-06T08:44:37.610Z,985.51
2018-10-06T08:45:37.524Z,985.51
2018-10-06T08:46:38.270Z,985.51
2018-10-06T08:47:38.785Z,985.48
2018-10-06T08:49:39.390Z,985.49
2018-10-06T08:50:39.810Z,985.50
2018-10-06T08:51:47.426Z,985.53
2018-10-06T08:52:40.147Z,985.49
2018-10-06T08:53:39.127Z,985.46
2018-10-06T08:54:39.035Z,985.57
2018-10-06T08:55:39.391Z,985.54
2018-10-06T08:56:39.785Z,985.56
2018-10-06T08:57:39.809Z,985.51
2018-10-06T08:58:40.732Z,985.53
2018-10-06T08:59:44.916Z,985.54
2018-10-06T09:00:40.588Z,985.56
2018-10-06T09:01:42.887Z,985.57
2018-10-06T09:02:51.432Z,985.54
2018-10-06T09:03:41.981Z,985.54
2018-10-06T09:04:46.697Z,985.57
2018-10-06T09:05:56.242Z,985.51
2018-10-06T09:06:45.268Z,985.59
2018-10-06T09:07:43.055Z,985.57
2018-10-06T09:08:42.974Z,985.57
2018-10-06T09:10:42.624Z,985.52
2018-10-06T09:11:47.570Z,985.59
2018-10-06T09:12:42.252Z,985.59
2018-10-06T09:13:43.142Z,985.60
2018-10-06T09:14:55.026Z,985.57
2018-10-06T10:28:18.716Z,985.45
2018-10-06T10:28:57.108Z,985.43
2018-10-06T10:30:25.161Z,985.36
2018-10-06T11:05:31.821Z,985.22
2018-10-06T11:11:23.232Z,985.08
2018-10-06T11:12:12.919Z,985.20
2018-10-06T11:28:21.436Z,984.49
2018-10-06T11:29:10.592Z,984.66
2018-10-06T11:29:57.509Z,984.26
2018-10-06T11:38:12.106Z,984.86
2018-10-06T12:12:16.341Z,984.35
2018-10-06T12:13:55.367Z,984.14
2018-10-06T12:26:43.340Z,983.82
2018-10-06T12:36:39.819Z,983.68
2018-10-06T14:45:41.751Z,981.86
2018-10-06T14:46:12.000Z,981.82
2018-10-06T14:47:04.747Z,981.82
2018-10-06T14:48:05.856Z,981.79
2018-10-06T14:49:11.156Z,981.81
2018-10-06T14:50:24.600Z,981.76
2018-10-06T14:51:14.713Z,981.72
2018-10-06T14:52:47.365Z,981.74
2018-10-06T14:53:10.246Z,981.76
2018-10-06T14:55:12.739Z,981.74
2018-10-06T14:56:06.550Z,981.73
2018-10-06T14:58:06.721Z,981.69
2018-10-06T14:59:48.087Z,981.73
2018-10-06T15:05:55.890Z,981.88
2018-10-06T15:41:09.986Z,981.63
2018-10-06T15:42:21.963Z,981.60
2018-10-06T15:43:23.389Z,981.61
2018-10-06T15:44:12.109Z,981.59
2018-10-06T15:45:12.016Z,981.60
2018-10-06T15:46:14.554Z,981.60
2018-10-06T15:47:14.782Z,981.57
2018-10-06T15:49:13.710Z,981.54
2018-10-06T15:50:11.762Z,981.60
2018-10-06T15:51:10.968Z,981.58
2018-10-06T15:52:10.400Z,981.54
2018-10-06T15:53:09.782Z,981.62
2018-10-06T15:54:10.057Z,981.57
2018-10-06T15:55:10.347Z,981.59
2018-10-06T15:56:10.378Z,981.55
2018-10-06T15:57:10.533Z,981.59
2018-10-06T15:58:10.687Z,981.56
2018-10-06T15:59:11.118Z,981.58
2018-10-06T16:00:11.554Z,981.57
2018-10-06T16:01:11.394Z,981.57
2018-10-06T16:02:11.703Z,981.62
2018-10-06T16:03:11.788Z,981.55
2018-10-06T16:04:11.953Z,981.59
2018-10-06T16:05:12.111Z,981.55
2018-10-06T16:06:12.610Z,981.56
2018-10-06T16:07:17.874Z,981.62
2018-10-06T16:08:12.665Z,981.60
2018-10-06T16:09:13.427Z,981.60
2018-10-06T16:10:12.889Z,981.56
2018-10-06T16:11:13.400Z,981.58
2018-10-06T16:12:14.193Z,981.56
2018-10-06T16:13:13.739Z,981.62
2018-10-06T16:14:13.686Z,981.63
2018-10-06T16:15:13.980Z,981.62
2018-10-06T16:16:14.346Z,981.62
2018-10-06T16:17:14.396Z,981.63
2018-10-06T16:18:14.633Z,981.65
2018-10-06T16:19:16.196Z,981.64
2018-10-06T16:20:40.127Z,981.64
2018-10-06T17:53:20.786Z,981.50
2018-10-06T17:54:17.278Z,981.50
2018-10-06T17:57:17.125Z,981.51
2018-10-06T17:58:13.943Z,981.51
2018-10-06T17:59:20.139Z,981.51
2018-10-06T18:00:13.245Z,981.48
2018-10-06T18:01:11.908Z,981.50
2018-10-06T18:13:30.080Z,981.43
2018-10-06T18:14:26.850Z,981.46
2018-10-06T18:15:27.456Z,981.41
2018-10-06T18:19:13.526Z,981.52
2018-10-06T18:38:50.324Z,981.62
2018-10-06T18:41:36.781Z,981.62
2018-10-06T18:42:35.879Z,981.62
2018-10-06T18:43:40.334Z,981.66
2018-10-06T19:35:09.787Z,981.99
2018-10-06T19:37:48.653Z,982.00
2018-10-06T19:42:13.041Z,981.99
2018-10-06T19:42:30.067Z,981.99
2018-10-06T19:47:20.123Z,982.04
2018-10-06T19:47:44.453Z,982.10
2018-10-06T19:54:06.201Z,982.15
2018-10-06T20:02:30.200Z,982.15
2018-10-06T21:02:58.295Z,982.45
2018-10-06T21:13:01.468Z,982.41
2018-10-06T21:16:33.639Z,982.39
2018-10-06T21:20:51.395Z,982.37
2018-10-06T21:22:39.676Z,982.38
2018-10-06T21:42:29.562Z,982.31
2018-10-06T21:46:29.810Z,982.29
2018-10-06T21:47:58.387Z,982.27
